ADDS METAR Data INFO
IDs: Format: Raw Decoded Include TAF

Data at: 2256 UTC 22 Jun 2018

KSIF 222235Z AUTO 26003KT 7SM BKN060 BKN070 BKN080 30/21 A2975 RMK AO2 T03040214
KSIF 222215Z AUTO 27003KT 7SM SCT060 BKN080 BKN110 30/22 A2975 RMK AO2 T03040215
KSIF 222155Z AUTO 27005KT 10SM SCT060 SCT080 32/21 A2975 RMK AO2 T03160207
KSIF 222135Z AUTO 25004KT 10SM SCT060 SCT080 BKN090 31/21 A2974 RMK AO2 T03100210
KSIF 222115Z AUTO 22004KT 10SM SCT060 BKN070 BKN080 31/21 A2975 RMK AO2 T03050209
KSIF 222055Z AUTO 25004KT 7SM SCT050 BKN065 BKN080 31/21 A2975 RMK AO2 T03070210
KSIF 222035Z AUTO 23007KT 10SM SCT050 31/20 A2975 RMK AO2 T03130203
KSIF 222015Z AUTO 18009KT 10SM SCT050 32/21 A2975 RMK AO2 T03180206
KSIF 221955Z AUTO 20007KT 7SM SCT050 SCT070 31/21 A2976 RMK AO2 T03130213
KSIF 221935Z AUTO 20007KT 10SM SCT048 SCT060 32/21 A2977 RMK AO2 T03150212
KSIF 221915Z AUTO 19005KT 10SM SCT049 SCT060 31/21 A2978 RMK AO2 T03060213
KSIF 221855Z AUTO 21005KT 10SM SCT037 SCT049 SCT060 31/21 A2978 RMK AO2 T03140211
KSIF 221835Z AUTO 17006KT 10SM SCT035 SCT070 SCT080 31/23 A2979 RMK AO2 T03090226
KSIF 221815Z AUTO 20006KT 10SM SCT036 SCT042 SCT049 30/22 A2980 RMK AO2 T02990218
KSIF 221755Z AUTO 21007KT 10SM SCT031 SCT037 SCT044 30/22 A2981 RMK AO2 T03000222 10300 20206
KSIF 221735Z AUTO 00000KT 10SM SCT040 29/22 A2982 RMK AO2 T02880221
KSIF 221715Z AUTO 00000KT 10SM SCT026 SCT034 SCT065 29/23 A2983 RMK AO2 T02920225
KSIF 221655Z AUTO 20003KT 7SM SCT024 BKN034 BKN060 28/23 A2983 RMK AO2 T02800225
KSIF 221635Z AUTO 00000KT 10SM SCT021 SCT027 SCT060 28/22 A2984 RMK AO2 T02760218
KSIF 221615Z AUTO 00000KT 10SM SCT017 SCT060 27/22 A2984 RMK AO2 T02740219
KSIF 221555Z AUTO 00000KT 10SM SCT015 BKN060 26/22 A2985 RMK AO2 T02640223
KSIF 221535Z AUTO 00000KT 10SM CLR 25/23 A2985 RMK AO2 T02520229
KSIF 221515Z AUTO 00000KT 10SM SCT007 24/23 A2985 RMK AO2 T02430226
KSIF 221455Z AUTO 00000KT 10SM OVC007 23/23 A2985 RMK AO2 T02340228
KSIF 221435Z AUTO 00000KT 10SM OVC005 23/23 A2985 RMK AO2 T02270225
KSIF 221415Z AUTO 00000KT 10SM OVC005 22/22 A2985 RMK AO2 T02210221
KSIF 221355Z AUTO 00000KT 7SM OVC003 22/22 A2986 RMK AO2 T02180218
KSIF 221335Z AUTO 00000KT 7SM OVC003 22/22 A2985 RMK AO2 T02160216
KSIF 221315Z AUTO 00000KT 10SM OVC003 21/21 A2985 RMK AO2 T02140214
KSIF 221255Z AUTO 00000KT 3SM BR OVC003 21/21 A2985 RMK AO2 T02110211
KSIF 221235Z AUTO 00000KT 2 1/2SM BR OVC001 21/21 A2985 RMK AO2 VIS 2V4 T02070207
KSIF 221215Z AUTO 00000KT 1/2SM RA OVC001 21/21 A2985 RMK AO2 T02070207
KSIF 221155Z AUTO 00000KT 3/4SM RA OVC001 21/21 A2984 RMK AO2 60001 70090 T02090209 10209 20192
KSIF 221135Z AUTO 00000KT 1/2SM RA OVC001 21/21 A2984 RMK AO2 T02060206
KSIF 221115Z AUTO 00000KT 1/2SM FG OVC001 21/21 A2984 RMK AO2 T02060206
KSIF 221055Z AUTO 00000KT 1/2SM FG OVC001 21/21 A2983 RMK AO2 T02070207
KSIF 221035Z AUTO 00000KT 1/4SM FG OVC001 21/21 A2983 RMK AO2 T02060206
KSIF 221015Z AUTO 00000KT 1/4SM FG OVC001 21/21 A2983 RMK AO2 T02050205
KSIF 220955Z AUTO 00000KT 1/2SM FG OVC001 21/21 A2982 RMK AO2 T02060206
KSIF 220935Z AUTO 00000KT 3/4SM BR OVC001 21/21 A2981 RMK AO2 T02070207
KSIF 220915Z AUTO 00000KT 1/2SM FG OVC001 21/21 A2981 RMK AO2 T02080208
KSIF 220855Z AUTO 00000KT 3/4SM BR OVC001 21/21 A2980 RMK AO2 60001 T02070207
KSIF 220835Z AUTO 00000KT 2 1/2SM BR OVC003 21/21 A2980 RMK AO2 T02080208
KSIF 220815Z AUTO 00000KT 4SM BR OVC003 21/21 A2980 RMK AO2 T02070207
KSIF 220755Z AUTO 00000KT 1 1/2SM BR OVC003 21/21 A2979 RMK AO2 T02060206
KSIF 220735Z AUTO 00000KT 2 1/2SM BR OVC003 21/21 A2979 RMK AO2 T02060206
KSIF 220715Z AUTO 00000KT 1 1/2SM BR OVC003 21/21 A2978 RMK AO2 T02050205
KSIF 220655Z AUTO 00000KT 3SM BR OVC003 20/20 A2978 RMK AO2 P0001 T01990199
KSIF 220635Z AUTO 00000KT 1SM BR BKN001 OVC005 19/19 A2979 RMK AO2 T01940194
KSIF 220615Z AUTO 00000KT 2 1/2SM BR CLR 20/20 A2979 RMK AO2 VIS 1 3/4V5 T01950195
KSIF 220555Z AUTO 00000KT 3SM BR CLR 20/20 A2980 RMK AO2 60089 T01960196 10265 20196 403200196
KSIF 220535Z AUTO 00000KT 4SM BR CLR 20/20 A2981 RMK AO2 T02000200
KSIF 220515Z AUTO 00000KT 3SM BR CLR 20/20 A2981 RMK AO2 T02020202
KSIF 220455Z AUTO 00000KT 5SM BR SCT002 21/21 A2982 RMK AO2 T02070206
KSIF 220435Z AUTO 00000KT 7SM SCT002 21/21 A2982 RMK AO2 T02100210
KSIF 220415Z AUTO 00000KT 10SM SCT080 SCT120 21/21 A2983 RMK AO2 T02130212
KSIF 220355Z AUTO 00000KT 7SM -RA SCT048 SCT065 BKN080 21/21 A2983 RMK AO2 P0010 T02120211
KSIF 220335Z AUTO 19005KT 10SM -RA SCT006 BKN080 OVC110 22/21 A2984 RMK AO2 P0009 T02150212
KSIF 220315Z AUTO 00000KT 2 1/2SM +RA SCT019 BKN026 OVC038 22/21 A2984 RMK AO2 VIS 1 1/2V3 P0007 T02150213
KSIF 220255Z AUTO 00000KT 1 1/2SM +RA BKN016 OVC024 21/21 A2983 RMK AO2 P0047 60078 T02130210
KSIF 220235Z AUTO 00000KT 2SM +RA SCT008 BKN021 OVC034 22/21 A2984 RMK AO2 P0035 T02150210
KSIF 220215Z AUTO 28003KT 2SM +RA SCT006 BKN010 OVC017 22/21 A2983 RMK AO2 VIS 1 1/4V4 P0020 T02160210
KSIF 220155Z AUTO 26005KT 1 1/2SM +RA BKN011 BKN023 OVC043 23/22 A2983 RMK AO2 P0029 T02340224
KSIF 220135Z AUTO 00000KT 7SM RA SCT042 BKN070 OVC085 24/23 A2980 RMK AO2 P0002 T02400230
KSIF 220115Z AUTO 09003KT 5SM RA SCT048 OVC085 24/23 A2979 RMK AO2 P0001 T02410229
KSIF 220055Z AUTO 00000KT 10SM -RA BKN085 OVC100 25/23 A2979 RMK AO2 T02480226
KSIF 220035Z AUTO 00000KT 10SM SCT085 OVC110 25/23 A2978 RMK AO2 T02500226
KSIF 220015Z AUTO 00000KT 10SM BKN120 26/23 A2979 RMK AO2 T02600227
KSIF 212355Z AUTO 00000KT 10SM SCT120 27/22 A2978 RMK AO2 T02660223 10320 20266
KSIF 212335Z AUTO 00000KT 10SM CLR 27/22 A2978 RMK AO2 T02700224
KSIF 212315Z AUTO 00000KT 10SM CLR 28/23 A2977 RMK AO2 T02750228
KSIF 212255Z AUTO 00000KT 10SM CLR 28/22 A2977 RMK AO2 T02810224
KSIF 212235Z AUTO 00000KT 10SM CLR 30/22 A2976 RMK AO2 T02950220
KSIF 212215Z AUTO 00000KT 10SM CLR 30/21 A2976 RMK AO2 T03010209
KSIF 212155Z AUTO 23006KT 10SM CLR 32/21 A2977 RMK AO2 T03150213
KSIF 212135Z AUTO 33003KT 10SM CLR 31/21 A2977 RMK AO2 T03060213
KSIF 212115Z AUTO 31003KT 10SM SCT070 31/21 A2978 RMK AO2 T03060208
KSIF 212055Z AUTO 28005KT 10SM BKN070 BKN100 31/21 A2978 RMK AO2 T03050213
KSIF 212035Z AUTO 24005KT 10SM SCT070 SCT110 32/21 A2978 RMK AO2 T03150209
KSIF 212015Z AUTO 00000KT 10SM CLR 32/21 A2978 RMK AO2 T03150213
KSIF 211955Z AUTO 24005KT 10SM CLR 32/21 A2979 RMK AO2 T03150212
KSIF 211935Z AUTO 00000KT 10SM CLR 31/22 A2979 RMK AO2 T03070217
KSIF 211915Z AUTO 29004KT 10SM CLR 31/22 A2980 RMK AO2 T03080218
KSIF 211855Z AUTO 28006KT 10SM CLR 30/22 A2981 RMK AO2 T03040217
KSIF 211835Z AUTO 24004KT 10SM CLR 30/22 A2981 RMK AO2 T03010218
KSIF 211815Z AUTO 23004KT 10SM CLR 30/22 A2982 RMK AO2 T03020216
KSIF 211755Z AUTO 00000KT 10SM CLR 30/21 A2982 RMK AO2 T03000211 10312 20241
KSIF 211735Z AUTO 24005KT 10SM SCT100 31/21 A2983 RMK AO2 T03060213
KSIF 211715Z AUTO 00000KT 10SM SCT039 SCT047 BKN100 31/22 A2984 RMK AO2 T03080216
KSIF 211655Z AUTO 22005KT 10SM SCT036 SCT045 SCT100 30/21 A2984 RMK AO2 T03020214
KSIF 211635Z AUTO 00000KT 10SM CLR 30/21 A2985 RMK AO2 T03000209
KSIF 211615Z AUTO 00000KT 10SM CLR 30/21 A2985 RMK AO2 T02960207
KSIF 211555Z AUTO 31003KT 10SM CLR 30/21 A2985 RMK AO2 T02990212
KSIF 211535Z AUTO 00000KT 10SM CLR 30/21 A2985 RMK AO2 T02990210
KSIF 211515Z AUTO 00000KT 10SM SCT120 30/21 A2985 RMK AO2 T03040213
KSIF 211455Z AUTO 00000KT 10SM CLR 30/21 A2985 RMK AO2 T02950214
KSIF 211435Z AUTO 29004KT 10SM CLR 29/21 A2985 RMK AO2 T02880213
KSIF 211355Z AUTO 32003KT 10SM CLR 27/22 A2985 RMK AO2 T02680215
KSIF 211335Z AUTO 29003KT 10SM CLR 27/22 A2985 RMK AO2 T02650215
KSIF 211315Z AUTO 00000KT 10SM CLR 27/21 A2985 RMK AO2 T02690213
KSIF 211255Z AUTO 00000KT 10SM CLR 27/22 A2985 RMK AO2 T02660219
KSIF 211235Z AUTO 00000KT 10SM CLR 26/21 A2985 RMK AO2 T02570214
KSIF 211215Z AUTO 23003KT 10SM CLR 25/22 A2985 RMK AO2 T02520215
KSIF 211155Z AUTO 00000KT 10SM CLR 24/21 A2984 RMK AO2 T02400207 10240 20202
KSIF 211135Z AUTO 00000KT 10SM CLR 23/22 A2984 RMK AO2 T02280215
KSIF 211115Z AUTO 00000KT 7SM CLR 21/21 A2983 RMK AO2 T02120212